Time;durP1;ratioP1;P1;durP2;ratioP2;P2;SDS_P1;SDS_P2;PMS_P1;PMS_P2;Temp;Humidity;BMP_temperature;BMP_pressure;BME280_temperature;BME280_humidity;BME280_pressure;Samples;Min_cycle;Max_cycle;Signal;HPM_P1;HPM_P2
2023/01/10 00:03:21;;;;;;;;;;;;;;;18.94;42.89;99837.53;10482130;28;1309;-66
2023/01/10 00:08:21;;;;;;;;;;;;;;;18.94;42.78;99837.53;10500316;28;856;-66
2023/01/10 00:13:22;;;;;;;;;;;;;;;18.91;42.98;99828.06;10499555;28;1181;-65
2023/01/10 00:18:22;;;;;;;;;;;;;;;18.92;42.73;99828.91;10499318;28;1906;-65
2023/01/10 00:23:22;;;;;;;;;;;;;;;18.87;42.92;99832.00;10498974;28;1186;-64
2023/01/10 00:28:23;;;;;;;;;;;;;;;18.88;42.85;99831.88;10499264;28;1044;-64
2023/01/10 00:33:23;;;;;;;;;;;;;;;18.93;42.68;99833.19;10499634;28;1260;-59
2023/01/10 00:38:23;;;;;;;;;;;;;;;18.95;42.54;99833.88;10502079;28;1914;-61
2023/01/10 00:48:42;;;;;;;;;;;;;;;18.95;42.54;99844.53;10506429;28;665;-66
2023/01/10 00:53:42;;;;;;;;;;;;;;;18.91;42.64;99844.03;10506088;28;1270;-66
2023/01/10 00:58:43;;;;;;;;;;;;;;;18.88;42.66;99849.66;10506299;28;1913;-65
2023/01/10 01:03:43;;;;;;;;;;;;;;;18.83;42.69;99855.44;10505918;28;1264;-66
2023/01/10 01:08:44;;;;;;;;;;;;;;;18.81;42.81;99856.59;10505504;28;942;-63
2023/01/10 01:13:44;;;;;;;;;;;;;;;18.83;42.68;99854.59;10505528;28;1202;-65
2023/01/10 01:18:44;;;;;;;;;;;;;;;18.84;42.76;99857.09;10505760;28;1914;-66
2023/01/10 01:23:44;;;;;;;;;;;;;;;18.85;42.48;99856.09;10505152;28;1259;-65
2023/01/10 01:28:44;;;;;;;;;;;;;;;18.87;42.60;99861.28;10505434;28;804;-65
2023/01/10 01:33:45;;;;;;;;;;;;;;;18.85;42.56;99855.25;10504345;28;1323;-65
2023/01/10 01:38:45;;;;;;;;;;;;;;;18.86;42.59;99864.91;10504493;28;1967;-65
2023/01/10 01:43:58;;;;;;;;;;;;;;;18.82;42.56;99861.75;10486574;28;1255;-60
2023/01/10 01:48:59;;;;;;;;;;;;;;;18.84;42.68;99858.94;10502556;28;781;-65
2023/01/10 01:54:00;;;;;;;;;;;;;;;18.88;42.53;99853.13;10503990;28;1195;-64
2023/01/10 01:59:11;;;;;;;;;;;;;;;18.87;42.21;99854.13;10485905;28;1969;-63
2023/01/10 02:04:19;;;;;;;;;;;;;;;18.86;42.23;99848.97;10505336;28;1260;-78
2023/01/10 02:09:24;;;;;;;;;;;;;;;18.89;42.37;99856.63;10492603;28;1178;-60
2023/01/10 02:14:24;;;;;;;;;;;;;;;18.89;42.24;99865.47;10484822;28;1258;-61
2023/01/10 02:19:38;;;;;;;;;;;;;;;18.86;42.30;99867.56;10484667;28;1910;-59
2023/01/10 02:24:43;;;;;;;;;;;;;;;18.84;42.27;99865.06;10484966;28;1298;-59
2023/01/10 02:29:48;;;;;;;;;;;;;;;18.84;42.23;99869.59;10483886;28;1053;-61
2023/01/10 02:34:55;;;;;;;;;;;;;;;18.84;42.04;99854.44;10484416;28;1237;-63
2023/01/10 02:39:57;;;;;;;;;;;;;;;18.86;42.07;99856.94;10483631;28;1910;-63
2023/01/10 02:45:09;;;;;;;;;;;;;;;18.83;42.04;99857.28;10483845;28;1192;-64
2023/01/10 02:50:21;;;;;;;;;;;;;;;18.83;42.09;99852.78;10483760;28;998;-60
2023/01/10 02:55:21;;;;;;;;;;;;;;;18.85;41.83;99848.13;10484377;28;1459;-60
2023/01/10 03:00:30;;;;;;;;;;;;;;;18.87;42.06;99851.47;10483085;28;1965;-62
2023/01/10 03:05:42;;;;;;;;;;;;;;;18.87;41.91;99846.16;10501243;28;1175;-60
2023/01/10 03:10:42;;;;;;;;;;;;;;;18.85;42.05;99834.81;10483006;28;1285;-63
2023/01/10 03:15:42;;;;;;;;;;;;;;;18.85;41.95;99840.16;10501219;28;963;-64
2023/01/10 03:20:43;;;;;;;;;;;;;;;18.86;41.84;99836.50;10482259;28;1910;-62
2023/01/10 03:25:44;;;;;;;;;;;;;;;18.87;41.81;99843.50;10482651;28;853;-62
2023/01/10 03:30:48;;;;;;;;;;;;;;;18.87;41.89;99835.50;10500235;28;1188;-63
2023/01/10 03:35:52;;;;;;;;;;;;;;;18.87;42.05;99846.16;10501668;28;864;-61
2023/01/10 03:41:00;;;;;;;;;;;;;;;18.87;41.90;99846.16;10500254;28;1963;-63
2023/01/10 03:46:02;;;;;;;;;;;;;;;18.86;42.11;99856.94;10482196;28;1345;-63
2023/01/10 03:51:03;;;;;;;;;;;;;;;18.85;42.17;99852.59;10482254;28;1216;-63
2023/01/10 03:56:04;;;;;;;;;;;;;;;18.87;41.96;99859.44;10482178;28;939;-62
2023/01/10 04:01:04;;;;;;;;;;;;;;;18.87;42.00;99858.63;10481425;28;1976;-63
2023/01/10 04:06:04;;;;;;;;;;;;;;;18.85;41.96;99864.09;10501723;28;788;-60
2023/01/10 04:11:05;;;;;;;;;;;;;;;18.84;42.01;99857.09;10500278;28;1261;-59
2023/01/10 04:16:05;;;;;;;;;;;;;;;18.85;41.95;99868.56;10490746;28;1692;-61
2023/01/10 04:21:05;;;;;;;;;;;;;;;18.80;42.03;99861.06;10507383;28;1906;-59
2023/01/10 04:26:05;;;;;;;;;;;;;;;18.80;42.03;99860.22;10507083;28;855;-59
2023/01/10 04:31:06;;;;;;;;;;;;;;;18.81;42.14;99859.25;10488535;28;1307;-63
2023/01/10 04:36:06;;;;;;;;;;;;;;;18.81;42.09;99849.44;10506785;28;949;-63
2023/01/10 04:41:06;;;;;;;;;;;;;;;18.81;41.96;99853.94;10506523;28;1901;-61
2023/01/10 04:46:06;;;;;;;;;;;;;;;18.82;42.02;99860.91;10506487;28;1321;-59
2023/01/10 04:51:07;;;;;;;;;;;;;;;18.79;42.00;99856.72;10506267;28;1177;-64
2023/01/10 04:56:07;;;;;;;;;;;;;;;18.81;42.01;99849.44;10506991;28;914;-66
2023/01/10 05:01:11;;;;;;;;;;;;;;;18.83;41.81;99846.63;10514099;28;1971;-63
2023/01/10 05:06:11;;;;;;;;;;;;;;;18.85;41.92;99847.28;10506290;28;951;-64
2023/01/10 05:11:11;;;;;;;;;;;;;;;18.80;42.09;99858.41;10504978;28;1293;-60
2023/01/10 05:16:11;;;;;;;;;;;;;;;18.85;41.91;99855.25;10505387;28;1018;-60
2023/01/10 05:21:12;;;;;;;;;;;;;;;18.86;41.84;99863.09;10504501;28;1906;-60
2023/01/10 05:26:13;;;;;;;;;;;;;;;18.87;41.87;99866.59;10504543;28;1034;-60
2023/01/10 05:31:14;;;;;;;;;;;;;;;18.87;41.85;99869.25;10504662;28;1329;-59
2023/01/10 05:36:14;;;;;;;;;;;;;;;18.86;41.82;99879.06;10504741;28;811;-64
2023/01/10 05:41:14;;;;;;;;;;;;;;;18.86;41.92;99887.03;10485905;28;1968;-61
2023/01/10 05:46:14;;;;;;;;;;;;;;;18.84;42.14;99890.88;10461557;28;1361;-64
2023/01/10 05:51:14;;;;;;;;;;;;;;;18.86;42.07;99900.34;10462987;28;1307;-65
2023/01/10 05:56:15;;;;;;;;;;;;;;;18.89;41.91;99902.69;10461341;28;860;-64
2023/01/10 06:01:15;;;;;;;;;;;;;;;18.88;41.89;99901.03;10462371;28;1988;-64
2023/01/10 06:06:15;;;;;;;;;;;;;;;18.99;41.46;99915.91;10461537;28;924;-62
2023/01/10 06:11:15;;;;;;;;;;;;;;;18.99;41.55;99902.59;10461358;28;1204;-65
2023/01/10 06:16:15;;;;;;;;;;;;;;;19.00;41.50;99908.72;10461330;28;868;-59
2023/01/10 06:21:16;;;;;;;;;;;;;;;18.95;41.84;99914.53;10461328;28;1991;-62
2023/01/10 06:26:17;;;;;;;;;;;;;;;18.92;41.59;99906.03;10460694;28;942;-61
2023/01/10 06:31:17;;;;;;;;;;;;;;;18.89;41.59;99910.69;10460396;28;1186;-64
2023/01/10 06:36:17;;;;;;;;;;;;;;;18.91;41.75;99918.50;10458481;28;1171;-61
2023/01/10 06:41:18;;;;;;;;;;;;;;;18.91;41.82;99918.50;10460551;28;1914;-64
2023/01/10 06:46:18;;;;;;;;;;;;;;;18.92;41.81;99932.66;10495392;28;1148;-64
2023/01/10 06:51:18;;;;;;;;;;;;;;;18.89;41.75;99937.28;10483156;28;1192;-71
2023/01/10 06:56:18;;;;;;;;;;;;;;;18.94;41.49;99938.63;10501645;28;1139;-64
2023/01/10 07:01:19;;;;;;;;;;;;;;;18.89;41.67;99953.25;10483265;28;1914;-60
2023/01/10 07:06:20;;;;;;;;;;;;;;;18.97;41.48;99962.28;10482695;28;999;-62
2023/01/10 07:11:20;;;;;;;;;;;;;;;18.98;41.52;99966.59;10500945;28;1201;-62
2023/01/10 07:16:20;;;;;;;;;;;;;;;18.97;41.49;99971.09;10500288;28;935;-60
2023/01/10 07:21:20;;;;;;;;;;;;;;;18.95;41.58;99982.88;10500017;28;1973;-61
2023/01/10 07:26:23;;;;;;;;;;;;;;;18.96;41.58;100000.50;10501100;28;769;-69
2023/01/10 07:31:23;;;;;;;;;;;;;;;18.87;41.83;100004.91;10499235;28;1293;-67
2023/01/10 07:36:23;;;;;;;;;;;;;;;18.87;41.71;100002.25;10482626;28;918;-69
2023/01/10 07:41:23;;;;;;;;;;;;;;;18.88;42.21;100015.41;10499761;28;2007;-70
2023/01/10 07:46:24;;;;;;;;;;;;;;;18.85;42.24;100028.16;10500242;28;1800;-69
2023/01/10 07:51:25;;;;;;;;;;;;;;;18.89;42.67;100030.38;10516200;28;1277;-69
2023/01/10 07:56:25;;;;;;;;;;;;;;;18.94;42.57;100042.38;10507972;28;812;-61
2023/01/10 08:01:25;;;;;;;;;;;;;;;18.95;42.58;100038.75;10507607;28;1971;-69
2023/01/10 08:06:25;;;;;;;;;;;;;;;19.01;42.66;100046.09;10507591;28;920;-64
2023/01/10 08:11:25;;;;;;;;;;;;;;;19.06;42.28;100052.66;10507901;28;1198;-65
2023/01/10 08:16:26;;;;;;;;;;;;;;;19.05;42.28;100052.81;10506104;28;1005;-64
2023/01/10 08:21:26;;;;;;;;;;;;;;;18.99;41.78;100058.75;10489691;28;1894;-60
2023/01/10 08:26:27;;;;;;;;;;;;;;;18.95;41.67;100068.00;10506694;28;884;-60
2023/01/10 08:31:27;;;;;;;;;;;;;;;18.98;41.54;100084.50;10506400;28;1282;-63
2023/01/10 08:36:28;;;;;;;;;;;;;;;19.01;41.47;100083.34;10506366;28;1046;-60
2023/01/10 08:41:30;;;;;;;;;;;;;;;19.01;41.44;100091.34;10506556;28;1914;-69
2023/01/10 08:46:30;;;;;;;;;;;;;;;19.05;41.32;100090.91;10488396;28;1252;-61
2023/01/10 08:51:30;;;;;;;;;;;;;;;19.10;41.54;100099.25;10488037;28;1201;-60
2023/01/10 08:56:30;;;;;;;;;;;;;;;19.15;41.36;100106.78;10505467;28;939;-60
2023/01/10 09:01:31;;;;;;;;;;;;;;;19.11;41.38;100116.91;10505295;28;1956;-70
2023/01/10 09:06:31;;;;;;;;;;;;;;;19.09;41.03;100124.19;10488053;28;789;-60
2023/01/10 09:11:31;;;;;;;;;;;;;;;19.09;42.74;100128.66;10505814;28;1176;-60
2023/01/10 09:16:31;;;;;;;;;;;;;;;19.28;42.83;100140.03;10505188;28;907;-61
2023/01/10 09:21:31;;;;;;;;;;;;;;;19.35;42.85;100150.91;10505019;28;1910;-62
2023/01/10 09:26:32;;;;;;;;;;;;;;;19.18;42.87;100151.72;10505419;28;793;-62
2023/01/10 09:31:32;;;;;;;;;;;;;;;19.13;42.80;100160.16;10504425;28;1169;-61
2023/01/10 09:36:32;;;;;;;;;;;;;;;19.12;42.58;100170.97;10504742;28;859;-65
2023/01/10 09:41:32;;;;;;;;;;;;;;;19.06;42.53;100172.41;10503667;28;1905;-62
2023/01/10 09:46:32;;;;;;;;;;;;;;;19.04;42.17;100176.19;10503595;28;1290;-63
2023/01/10 09:51:37;;;;;;;;;;;;;;;19.07;42.63;100183.91;10485502;28;1204;-62
2023/01/10 09:56:37;;;;;;;;;;;;;;;19.03;42.78;100188.66;10485927;28;1006;-62
2023/01/10 10:01:37;;;;;;;;;;;;;;;19.01;42.99;100195.94;10485128;28;1910;-62
2023/01/10 10:06:37;;;;;;;;;;;;;;;18.94;42.88;100202.84;10485592;28;910;-60
2023/01/10 10:11:45;;;;;;;;;;;;;;;18.91;42.87;100208.50;10502161;28;1210;-61
2023/01/10 10:16:46;;;;;;;;;;;;;;;18.89;42.79;100224.59;10503240;28;864;-63
2023/01/10 10:21:53;;;;;;;;;;;;;;;19.03;42.34;100209.94;10502244;28;1918;-60
2023/01/10 10:27:17;;;;;;;;;;;;;;;18.98;42.45;100211.38;10484256;28;856;-62
2023/01/10 10:32:32;;;;;;;;;;;;;;;19.04;42.42;100219.59;10474106;28;1743;-62
2023/01/10 10:37:34;;;;;;;;;;;;;;;19.05;42.72;100231.09;10502336;28;878;-61
2023/01/10 10:42:36;;;;;;;;;;;;;;;19.10;43.06;100242.13;10485765;28;2002;-64
2023/01/10 10:47:36;;;;;;;;;;;;;;;19.05;42.62;100250.56;10484031;28;805;-62
2023/01/10 10:52:36;;;;;;;;;;;;;;;19.05;43.42;100252.38;10483320;28;1272;-62
2023/01/10 10:57:37;;;;;;;;;;;;;;;19.15;42.95;100254.00;10501062;28;850;-59
2023/01/10 11:02:38;;;;;;;;;;;;;;;19.11;42.77;100246.47;10484308;28;1906;-62
2023/01/10 11:07:38;;;;;;;;;;;;;;;19.17;42.96;100237.88;10483894;28;843;-59
2023/01/10 11:12:40;;;;;;;;;;;;;;;19.14;42.91;100239.03;10501391;28;1310;-58
2023/01/10 11:17:41;;;;;;;;;;;;;;;19.11;42.71;100228.66;10483282;28;860;-59
2023/01/10 11:22:48;;;;;;;;;;;;;;;19.15;42.80;100247.81;10501079;28;1906;-61
2023/01/10 11:27:56;;;;;;;;;;;;;;;19.09;42.52;100251.94;10482530;28;1044;-62
2023/01/10 11:32:57;;;;;;;;;;;;;;;19.00;42.62;100250.16;10483196;28;1196;-63
2023/01/10 11:38:02;;;;;;;;;;;;;;;19.03;42.28;100241.03;10482770;28;882;-62
2023/01/10 11:43:21;;;;;;;;;;;;;;;19.05;42.18;100241.75;10500088;28;1957;-67
2023/01/10 11:48:21;;;;;;;;;;;;;;;19.06;42.03;100256.72;10482544;28;876;-61
2023/01/10 11:53:34;;;;;;;;;;;;;;;19.04;42.36;100248.88;10482184;28;1303;-61
2023/01/10 11:58:34;;;;;;;;;;;;;;;19.04;43.65;100251.53;10499493;28;853;-70
2023/01/10 12:03:36;;;;;;;;;;;;;;;18.95;41.93;100259.56;10481370;28;1898;-69
2023/01/10 12:08:36;;;;;;;;;;;;;;;18.94;41.80;100260.53;10482356;28;890;-61
2023/01/10 12:13:44;;;;;;;;;;;;;;;18.94;41.80;100257.88;10499149;28;1272;-62
2023/01/10 12:18:45;;;;;;;;;;;;;;;18.95;44.21;100259.56;10498886;28;1917;-61
2023/01/10 12:23:45;;;;;;;;;;;;;;;19.00;42.82;100266.09;10498920;28;1195;-61
2023/01/10 12:28:56;;;;;;;;;;;;;;;18.98;42.69;100267.25;10481767;28;816;-68
2023/01/10 12:33:58;;;;;;;;;;;;;;;18.97;42.84;100276.22;10484352;28;1312;-60
2023/01/10 12:39:15;;;;;;;;;;;;;;;19.00;42.52;100283.91;10489104;28;1975;-66
2023/01/10 12:44:17;;;;;;;;;;;;;;;19.22;42.70;100288.84;10488301;28;1192;-63
2023/01/10 12:49:31;;;;;;;;;;;;;;;19.60;42.82;100283.34;10488533;28;962;-67
2023/01/10 12:54:31;;;;;;;;;;;;;;;19.76;42.08;100287.97;10487941;28;1193;-59
2023/01/10 12:59:36;;;;;;;;;;;;;;;19.72;42.00;100302.59;10506138;28;1972;-58
2023/01/10 13:04:36;;;;;;;;;;;;;;;19.62;41.87;100310.63;10488596;28;1319;-58
2023/01/10 13:09:37;;;;;;;;;;;;;;;19.62;42.34;100317.78;10506339;28;820;-58
2023/01/10 13:14:38;;;;;;;;;;;;;;;19.57;42.52;100314.75;10506072;28;1180;-58
2023/01/10 13:19:38;;;;;;;;;;;;;;;19.51;42.67;100313.53;10487745;28;1971;-57
2023/01/10 13:24:38;;;;;;;;;;;;;;;19.46;42.83;100317.56;10506005;28;1266;-62
2023/01/10 13:29:42;;;;;;;;;;;;;;;19.46;42.38;100325.56;10510174;28;808;-57
2023/01/10 13:34:42;;;;;;;;;;;;;;;19.51;41.92;100326.84;10507925;28;1180;-59
2023/01/10 13:39:45;;;;;;;;;;;;;;;19.24;42.31;100346.28;10512756;28;1913;-66
2023/01/10 13:45:01;;;;;;;;;;;;;;;19.18;43.53;100343.34;10512214;28;1417;-72
2023/01/10 13:50:01;;;;;;;;;;;;;;;19.10;42.41;100354.72;10512476;28;891;-61
2023/01/10 13:55:02;;;;;;;;;;;;;;;19.03;42.21;100358.97;10488009;28;1279;-62
2023/01/10 14:05:21;;;;;;;;;;;;;;;18.99;42.83;100359.41;10504434;28;1232;-62
2023/01/10 14:10:22;;;;;;;;;;;;;;;19.02;43.04;100361.75;10504832;28;860;-69
2023/01/10 14:15:28;;;;;;;;;;;;;;;19.00;42.99;100358.41;10486683;28;1271;-67
2023/01/10 14:20:29;;;;;;;;;;;;;;;19.03;44.58;100376.75;10504991;28;1963;-62
2023/01/10 14:25:29;;;;;;;;;;;;;;;18.93;42.98;100374.09;10503889;28;1169;-72
2023/01/10 14:30:31;;;;;;;;;;;;;;;18.94;43.72;100370.47;10502478;28;842;-62
2023/01/10 14:35:33;;;;;;;;;;;;;;;18.89;42.83;100386.88;10484721;28;1165;-65
2023/01/10 14:40:39;;;;;;;;;;;;;;;18.96;42.75;100384.47;10484586;28;1910;-74
2023/01/10 14:45:49;;;;;;;;;;;;;;;19.03;42.48;100396.22;10502862;28;1235;-66
2023/01/10 14:50:49;;;;;;;;;;;;;;;18.95;43.11;100392.59;10502994;28;1294;-61
2023/01/10 14:55:51;;;;;;;;;;;;;;;18.94;43.15;100396.22;10501883;28;1093;-73
2023/01/10 15:00:52;;;;;;;;;;;;;;;18.92;43.19;100391.06;10483262;28;1906;-61
2023/01/10 15:05:53;;;;;;;;;;;;;;;18.87;43.31;100399.47;10483851;28;1008;-61
2023/01/10 15:10:54;;;;;;;;;;;;;;;18.89;43.16;100400.19;10484352;28;1267;-69
2023/01/10 15:15:54;;;;;;;;;;;;;;;18.87;43.17;100391.50;10482731;28;931;-62
2023/01/10 15:20:55;;;;;;;;;;;;;;;18.98;43.14;100408.28;10483085;28;1883;-62
2023/01/10 15:25:56;;;;;;;;;;;;;;;19.00;43.27;100406.28;10500319;28;785;-62
2023/01/10 15:30:57;;;;;;;;;;;;;;;19.08;43.62;100414.41;10483020;28;1188;-62
2023/01/10 15:36:07;;;;;;;;;;;;;;;19.15;43.68;100416.34;10500607;28;894;-62
2023/01/10 15:41:07;;;;;;;;;;;;;;;19.18;43.74;100425.88;10482067;28;1965;-68
2023/01/10 15:46:15;;;;;;;;;;;;;;;19.18;43.86;100433.84;10500587;28;1160;-61
2023/01/10 15:51:24;;;;;;;;;;;;;;;19.18;42.70;100425.88;10500306;28;1338;-63
2023/01/10 15:56:41;;;;;;;;;;;;;;;19.25;42.75;100437.63;10499911;28;1016;-70
2023/01/10 16:01:41;;;;;;;;;;;;;;;19.20;42.94;100442.53;10482068;28;1910;-72
2023/01/10 16:06:41;;;;;;;;;;;;;;;19.17;43.18;100437.50;10500074;28;880;-68
2023/01/10 16:17:04;;;;;;;;;;;;;;;19.11;43.42;100456.72;10512001;28;572;-65
2023/01/10 16:22:04;;;;;;;;;;;;;;;19.12;42.84;100461.06;10509813;28;1951;-64
2023/01/10 16:27:04;;;;;;;;;;;;;;;19.12;43.15;100461.06;10508087;28;931;-65
2023/01/10 16:32:09;;;;;;;;;;;;;;;19.09;42.71;100459.50;10489114;28;1276;-71
2023/01/10 16:37:10;;;;;;;;;;;;;;;19.25;44.59;100467.75;10508426;28;959;-65
2023/01/10 16:47:32;;;;;;;;;;;;;;;19.65;44.98;100491.47;10507130;28;646;-64
2023/01/10 16:52:32;;;;;;;;;;;;;;;19.94;43.39;100485.16;10506211;28;1382;-68
2023/01/10 16:57:32;;;;;;;;;;;;;;;20.05;43.96;100495.66;10506557;28;861;-62
2023/01/10 17:02:32;;;;;;;;;;;;;;;20.04;42.98;100494.81;10505605;28;2231;-61
2023/01/10 17:07:33;;;;;;;;;;;;;;;21.07;40.66;100498.84;10505547;28;884;-66
2023/01/10 17:12:33;;;;;;;;;;;;;;;20.51;41.61;100497.34;10505677;28;1204;-66
2023/01/10 17:17:34;;;;;;;;;;;;;;;20.85;41.38;100489.47;10488134;28;996;-64
2023/01/10 17:22:34;;;;;;;;;;;;;;;20.40;42.38;100502.91;10505004;28;1963;-59
2023/01/10 17:27:34;;;;;;;;;;;;;;;20.45;41.47;100508.59;10486691;28;821;-60
2023/01/10 17:32:34;;;;;;;;;;;;;;;20.55;41.38;100511.22;10505094;28;1189;-61
2023/01/10 17:37:35;;;;;;;;;;;;;;;21.00;40.02;100493.28;10504463;28;945;-60
2023/01/10 17:42:35;;;;;;;;;;;;;;;20.79;43.07;100514.13;10485997;28;1963;-58
2023/01/10 17:47:35;;;;;;;;;;;;;;;21.02;41.55;100504.66;10504676;28;988;-61
2023/01/10 17:52:36;;;;;;;;;;;;;;;21.28;42.44;100511.91;10485691;28;1196;-56
2023/01/10 17:57:38;;;;;;;;;;;;;;;21.06;41.90;100521.19;10503763;28;920;-59
2023/01/10 18:02:38;;;;;;;;;;;;;;;20.72;43.33;100532.56;10503908;28;1983;-61
2023/01/10 18:07:38;;;;;;;;;;;;;;;20.50;42.80;100537.50;10485092;28;1250;-63
2023/01/10 18:12:38;;;;;;;;;;;;;;;20.99;41.86;100525.47;10503303;28;1185;-62
2023/01/10 18:17:38;;;;;;;;;;;;;;;21.20;41.97;100531.38;10485235;28;1299;-62
2023/01/10 18:27:59;;;;;;;;;;;;;;;21.23;42.02;100546.22;10502241;28;599;-58
2023/01/10 18:32:59;;;;;;;;;;;;;;;21.19;41.92;100537.69;10501642;28;1173;-56
2023/01/10 18:37:59;;;;;;;;;;;;;;;21.06;42.09;100524.69;10502828;28;930;-57
2023/01/10 18:42:59;;;;;;;;;;;;;;;20.97;42.10;100525.63;10501353;28;1963;-57
2023/01/10 18:48:01;;;;;;;;;;;;;;;20.88;41.60;100531.91;10501730;28;852;-61
2023/01/10 18:53:01;;;;;;;;;;;;;;;20.80;41.99;100543.34;10502126;28;1285;-58
2023/01/10 18:58:02;;;;;;;;;;;;;;;20.75;42.48;100540.25;10501669;28;808;-57
2023/01/10 19:03:02;;;;;;;;;;;;;;;20.62;42.57;100555.81;10503597;28;1942;-57
2023/01/10 19:08:02;;;;;;;;;;;;;;;20.73;43.85;100552.09;10507113;28;1016;-57
2023/01/10 19:13:02;;;;;;;;;;;;;;;20.63;43.44;100544.16;10500987;28;1173;-57
2023/01/10 19:18:02;;;;;;;;;;;;;;;20.48;43.08;100536.81;10500829;28;860;-57
2023/01/10 19:23:03;;;;;;;;;;;;;;;20.58;43.03;100540.25;10482424;28;1910;-57
2023/01/10 19:28:03;;;;;;;;;;;;;;;20.56;42.62;100552.91;10500361;28;861;-58
2023/01/10 19:33:04;;;;;;;;;;;;;;;20.57;42.60;100543.91;10500060;28;1181;-59
2023/01/10 19:38:04;;;;;;;;;;;;;;;20.45;42.89;100553.09;10500719;28;887;-58
2023/01/10 19:43:04;;;;;;;;;;;;;;;20.38;43.13;100551.03;10505969;28;1965;-58
2023/01/10 19:48:05;;;;;;;;;;;;;;;20.35;42.99;100542.53;10514066;28;813;-60
2023/01/10 19:53:05;;;;;;;;;;;;;;;20.33;43.08;100541.78;10514796;28;1187;-59
2023/01/10 19:58:05;;;;;;;;;;;;;;;20.27;42.97;100553.06;10513978;28;813;-63
2023/01/10 20:03:06;;;;;;;;;;;;;;;20.24;43.34;100548.00;10513550;28;1906;-59
2023/01/10 20:08:06;;;;;;;;;;;;;;;20.18;43.60;100551.28;10514007;28;997;-60
2023/01/10 20:13:06;;;;;;;;;;;;;;;20.14;43.19;100548.03;10513804;28;1195;-58
2023/01/10 20:18:07;;;;;;;;;;;;;;;19.74;44.12;100552.88;10513094;28;793;-59
2023/01/10 20:23:08;;;;;;;;;;;;;;;19.39;44.65;100556.97;10495548;28;1906;-59
2023/01/10 20:28:08;;;;;;;;;;;;;;;19.30;44.46;100552.50;10512905;28;1155;-58
2023/01/10 20:33:08;;;;;;;;;;;;;;;19.54;44.68;100560.88;10513517;28;1191;-59
2023/01/10 20:38:08;;;;;;;;;;;;;;;19.67;45.22;100570.41;10513260;28;908;-59
2023/01/10 20:43:08;;;;;;;;;;;;;;;19.48;45.18;100565.97;10494347;28;1914;-57
2023/01/10 20:48:09;;;;;;;;;;;;;;;19.52;44.53;100562.03;10512426;28;935;-59
2023/01/10 20:53:09;;;;;;;;;;;;;;;19.41;44.57;100557.66;10494286;28;1197;-58
2023/01/10 20:58:09;;;;;;;;;;;;;;;19.35;44.60;100571.56;10506139;28;929;-58
2023/01/10 21:03:09;;;;;;;;;;;;;;;19.36;44.85;100556.44;10505405;28;1914;-58
2023/01/10 21:08:10;;;;;;;;;;;;;;;19.40;44.63;100560.47;10505989;28;880;-59
2023/01/10 21:13:10;;;;;;;;;;;;;;;19.20;45.31;100563.16;10505539;28;1150;-59
2023/01/10 21:18:10;;;;;;;;;;;;;;;19.15;45.27;100565.41;10505356;28;888;-59
2023/01/10 21:23:11;;;;;;;;;;;;;;;19.11;45.42;100557.84;10504679;28;1910;-59
2023/01/10 21:28:11;;;;;;;;;;;;;;;19.09;45.41;100562.47;10505660;28;1046;-58
2023/01/10 21:33:12;;;;;;;;;;;;;;;19.06;45.61;100565.41;10486466;28;1169;-58
2023/01/10 21:38:12;;;;;;;;;;;;;;;19.01;45.63;100559.66;10504877;28;781;-58
2023/01/10 21:43:12;;;;;;;;;;;;;;;18.99;45.71;100551.84;10503802;28;1965;-59
2023/01/10 21:48:12;;;;;;;;;;;;;;;19.02;45.73;100566.66;10504510;28;817;-59
2023/01/10 21:53:13;;;;;;;;;;;;;;;19.03;45.77;100560.38;10504286;28;1210;-60
2023/01/10 21:58:13;;;;;;;;;;;;;;;19.03;45.63;100561.22;10505620;28;939;-59
2023/01/10 22:03:13;;;;;;;;;;;;;;;19.38;45.81;100562.44;10503799;28;1979;-58
2023/01/10 22:08:13;;;;;;;;;;;;;;;19.23;46.01;100562.03;10502409;28;921;-58
2023/01/10 22:13:13;;;;;;;;;;;;;;;19.19;45.89;100557.97;10503205;28;1201;-58
2023/01/10 22:18:13;;;;;;;;;;;;;;;19.20;46.08;100557.84;10503243;28;904;-58
2023/01/10 22:23:14;;;;;;;;;;;;;;;19.18;45.95;100559.81;10503249;28;1918;-58
2023/01/10 22:28:14;;;;;;;;;;;;;;;19.16;45.85;100560.91;10502872;28;860;-58
2023/01/10 22:33:14;;;;;;;;;;;;;;;19.12;45.86;100570.19;10501882;28;1262;-58
2023/01/10 22:38:14;;;;;;;;;;;;;;;19.10;45.94;100565.00;10502511;28;852;-58
2023/01/10 22:43:14;;;;;;;;;;;;;;;19.04;45.89;100562.06;10501386;28;1969;-57
2023/01/10 22:48:15;;;;;;;;;;;;;;;19.02;45.84;100564.84;10501556;28;1035;-57
2023/01/10 22:53:15;;;;;;;;;;;;;;;18.97;46.07;100564.44;10501944;28;1172;-57
2023/01/10 22:58:15;;;;;;;;;;;;;;;18.93;45.88;100571.00;10501170;28;924;-58
2023/01/10 23:03:15;;;;;;;;;;;;;;;18.88;46.00;100578.56;10501463;28;1922;-58
2023/01/10 23:08:16;;;;;;;;;;;;;;;18.82;46.05;100566.66;10501289;28;820;-58
2023/01/10 23:13:16;;;;;;;;;;;;;;;18.76;46.08;100575.22;10500990;28;1240;-59
2023/01/10 23:18:16;;;;;;;;;;;;;;;18.73;46.01;100571.97;10482769;28;929;-58
2023/01/10 23:23:17;;;;;;;;;;;;;;;18.66;46.30;100571.69;10500955;28;1917;-58
2023/01/10 23:28:17;;;;;;;;;;;;;;;18.61;46.37;100562.44;10500378;28;1046;-59
2023/01/10 23:33:17;;;;;;;;;;;;;;;18.56;46.45;100554.88;10500729;28;1183;-59
2023/01/10 23:38:17;;;;;;;;;;;;;;;18.51;46.56;100549.94;10500665;28;861;-58
2023/01/10 23:43:18;;;;;;;;;;;;;;;18.46;46.52;100554.81;10499990;28;1977;-58
2023/01/10 23:48:18;;;;;;;;;;;;;;;18.42;46.45;100536.63;10499904;28;864;-58
2023/01/10 23:53:18;;;;;;;;;;;;;;;18.39;46.55;100531.56;10500326;28;1207;-60
2023/01/10 23:58:18;;;;;;;;;;;;;;;18.35;46.58;100516.88;10499646;28;1051;-58
